Lefors, Texas
Current Conditions -  °F | °C
As of 7:15 AM on Friday 31 Oct 2014 (Local Time) from KPPA Reporting Station
Clear Clear  
Wind Chill: 31°   Ceiling: Unl
Heat Index: 37°   Visibility: 10mi
Dew Point: 32°   Wind: 7mph
Humidity: 83%   Direction: 40°NE
Pressure: 30.43"   Gusts: NA
Location:  35.44°N, 100.81°W
Report Text: KPPA 311215Z AUTO 04006KT 10SM CLR 03/00 A3043 RMK AO2 T00251002 PNO
Loading
Personal Weather Stations






























Interactive Weather Map
Tropical Storm Tracking
New forecast layout! Learn more

10-Day Weather Forecast

Advertisements
Track Severe Weather on mobile